createdAt,value
2023-02-17T00:00:08.150Z,0
2023-02-17T00:06:15.365Z,0
2023-02-17T00:11:38.357Z,0
2023-02-17T00:17:00.964Z,0
2023-02-17T00:22:31.444Z,0
2023-02-17T00:33:33.387Z,0
2023-02-17T00:39:01.777Z,0
2023-02-17T00:44:24.333Z,0
2023-02-17T00:49:46.648Z,0
2023-02-17T00:55:14.541Z,0
2023-02-17T01:00:37.465Z,0
2023-02-17T01:06:00.175Z,0
2023-02-17T01:11:29.091Z,0
2023-02-17T01:16:59.790Z,0
2023-02-17T01:22:22.316Z,0
2023-02-17T01:27:44.704Z,0
2023-02-17T01:33:07.069Z,0
2023-02-17T01:38:32.089Z,0
2023-02-17T01:43:59.422Z,0
2023-02-17T01:49:22.056Z,0
2023-02-17T01:54:47.490Z,0
2023-02-17T02:00:10.851Z,0
2023-02-17T02:05:33.339Z,0
2023-02-17T02:10:56.101Z,0
2023-02-17T02:16:18.945Z,0
2023-02-17T02:21:44.836Z,0
2023-02-17T02:27:07.263Z,0
2023-02-17T02:32:29.492Z,0
2023-02-17T02:37:52.299Z,0
2023-02-17T02:43:15.213Z,0
2023-02-17T02:48:37.765Z,0
2023-02-17T02:54:00.076Z,0
2023-02-17T03:04:48.591Z,0
2023-02-17T03:10:17.489Z,0
2023-02-17T03:15:40.198Z,0
2023-02-17T03:21:02.645Z,0
2023-02-17T03:26:25.338Z,0
2023-02-17T03:31:51.098Z,0
2023-02-17T03:37:14.118Z,0
2023-02-17T03:42:36.867Z,0
2023-02-17T03:47:59.402Z,0
2023-02-17T04:04:29.809Z,0
2023-02-17T04:09:52.353Z,0
2023-02-17T04:15:17.346Z,0
2023-02-17T04:20:40.524Z,0
2023-02-17T04:26:05.454Z,0
2023-02-17T04:31:34.671Z,0
2023-02-17T04:36:57.432Z,0
2023-02-17T04:48:03.754Z,0
2023-02-17T04:53:26.341Z,0
2023-02-17T04:58:56.290Z,0
2023-02-17T05:04:19.462Z,0
2023-02-17T05:09:41.956Z,0
2023-02-17T05:15:12.244Z,0
2023-02-17T05:20:35.369Z,0
2023-02-17T05:25:58.026Z,0
2023-02-17T05:31:22.742Z,0
2023-02-17T05:36:45.331Z,0
2023-02-17T05:42:17.147Z,0
2023-02-17T05:47:39.739Z,0
2023-02-17T05:58:30.751Z,0
2023-02-17T06:03:55.645Z,0
2023-02-17T06:09:18.344Z,0
2023-02-17T06:14:41.096Z,0
2023-02-17T06:20:04.255Z,0
2023-02-17T06:25:26.813Z,0
2023-02-17T06:30:49.994Z,0
2023-02-17T06:36:15.723Z,3
2023-02-17T06:41:43.545Z,6
2023-02-17T06:47:06.223Z,11
2023-02-17T06:52:28.956Z,16
2023-02-17T06:57:51.511Z,26
2023-02-17T07:03:20.254Z,20.5
2023-02-17T07:09:21.705Z,36.9
2023-02-17T07:14:44.438Z,41.9
2023-02-17T07:20:10.573Z,48.3
2023-02-17T07:25:50.355Z,58
2023-02-17T07:31:14.154Z,69.1
2023-02-17T07:36:36.935Z,70.8
2023-02-17T07:41:59.529Z,88.6
2023-02-17T07:47:22.183Z,100
2023-02-17T07:52:44.814Z,145.3
2023-02-17T07:58:07.283Z,169.2
2023-02-17T08:03:30.362Z,198.4
2023-02-17T08:08:53.142Z,193.7
2023-02-17T08:14:15.609Z,256.2
2023-02-17T08:19:54.601Z,291.8
2023-02-17T08:25:17.434Z,264
2023-02-17T08:30:41.388Z,375.4
2023-02-17T08:36:05.287Z,375.5
2023-02-17T08:41:28.667Z,420.1
2023-02-17T08:46:51.478Z,449.7
2023-02-17T08:52:14.197Z,352.6
2023-02-17T08:57:36.916Z,434.9
2023-02-17T09:02:59.570Z,494.8
2023-02-17T09:08:22.154Z,366
2023-02-17T09:13:45.066Z,665.7
2023-02-17T09:19:08.230Z,798.4
2023-02-17T09:24:31.070Z,700.9
2023-02-17T09:29:53.644Z,702.6
2023-02-17T09:35:17.196Z,1078.6
2023-02-17T09:40:45.091Z,529.1
2023-02-17T09:46:09.132Z,847.4
2023-02-17T09:51:32.788Z,440
2023-02-17T09:56:56.313Z,612.3
2023-02-17T10:02:21.045Z,1883.6
2023-02-17T10:08:00.547Z,2162
2023-02-17T10:13:23.104Z,1113.9
2023-02-17T10:18:45.544Z,1064.2
2023-02-17T10:24:08.063Z,1900.7
2023-02-17T10:29:31.655Z,1880.3
2023-02-17T10:34:54.296Z,2105.6
2023-02-17T10:40:16.480Z,1114.9
2023-02-17T10:45:41.709Z,1615.5
2023-02-17T10:51:05.141Z,1214.7
2023-02-17T10:56:28.304Z,1001.6
2023-02-17T11:07:16.157Z,991.3
2023-02-17T11:12:39.011Z,828.1
2023-02-17T11:18:01.981Z,504.5
2023-02-17T11:23:24.991Z,327.8
2023-02-17T11:28:47.563Z,471.7
2023-02-17T11:34:10.415Z,563.2
2023-02-17T11:39:35.516Z,668
2023-02-17T11:44:58.398Z,875.3
2023-02-17T11:50:42.325Z,927.2
2023-02-17T11:56:06.318Z,1582.5
2023-02-17T12:01:30.232Z,1015.7
2023-02-17T12:06:52.161Z,938.6
2023-02-17T12:12:15.619Z,949.3
2023-02-17T12:17:37.888Z,786.3
2023-02-17T12:23:03.175Z,491.3
2023-02-17T12:28:31.995Z,1140.7
2023-02-17T12:33:54.855Z,1004.6
2023-02-17T12:39:16.571Z,2025
2023-02-17T12:44:40.622Z,829.6
2023-02-17T12:50:02.607Z,827.5
2023-02-17T12:55:40.346Z,2550.7
2023-02-17T13:01:07.103Z,839.2
2023-02-17T13:06:29.164Z,2679.7
2023-02-17T13:11:55.103Z,1011
2023-02-17T13:17:16.984Z,1186.5
2023-02-17T13:23:24.622Z,612.9
2023-02-17T13:28:46.651Z,661.3
2023-02-17T13:34:10.258Z,584.4
2023-02-17T13:39:32.988Z,607.6
2023-02-17T13:45:12.146Z,504.8
2023-02-17T13:50:34.700Z,705.8
2023-02-17T13:55:57.463Z,472.5
2023-02-17T14:06:45.508Z,435.4
2023-02-17T14:12:09.056Z,424.6
2023-02-17T14:17:33.380Z,598.7
2023-02-17T14:23:05.196Z,633.8
2023-02-17T14:28:27.897Z,415.3
2023-02-17T14:33:49.955Z,452.8
2023-02-17T14:39:14.737Z,427.7
2023-02-17T14:44:41.674Z,369.4
2023-02-17T14:50:09.772Z,244.1
2023-02-17T14:55:32.113Z,153.2
2023-02-17T15:00:57.104Z,169.7
2023-02-17T15:06:19.505Z,128.4
2023-02-17T15:11:42.065Z,81.1
2023-02-17T15:17:04.398Z,76.3
2023-02-17T15:22:31.984Z,56.5
2023-02-17T15:28:04.143Z,69.7
2023-02-17T15:33:26.964Z,62
2023-02-17T15:38:49.514Z,63.6
2023-02-17T15:44:11.715Z,57.5
2023-02-17T15:49:37.129Z,42.8
2023-02-17T15:55:07.375Z,50.1
2023-02-17T16:00:30.505Z,34.7
2023-02-17T16:05:52.874Z,29.3
2023-02-17T16:11:15.179Z,33.2
2023-02-17T16:16:38.235Z,26.1
2023-02-17T16:22:03.197Z,20
2023-02-17T16:27:25.769Z,25
2023-02-17T16:38:16.382Z,13
2023-02-17T16:43:39.033Z,10
2023-02-17T16:49:04.572Z,9
2023-02-17T16:54:26.915Z,7
2023-02-17T16:59:49.385Z,3
2023-02-17T17:05:11.826Z,0
2023-02-17T17:10:57.484Z,0
2023-02-17T17:16:20.688Z,0
2023-02-17T17:21:43.472Z,0
2023-02-17T17:27:08.844Z,0
2023-02-17T17:32:31.787Z,0
2023-02-17T17:37:54.522Z,0
2023-02-17T17:43:17.297Z,0
2023-02-17T17:48:39.711Z,0
2023-02-17T17:54:02.309Z,0
2023-02-17T17:59:24.666Z,0
2023-02-17T18:10:12.910Z,0
2023-02-17T18:15:38.326Z,0
2023-02-17T18:21:01.163Z,0
2023-02-17T18:26:23.889Z,0
2023-02-17T18:37:14.475Z,0
2023-02-17T18:42:37.108Z,0
2023-02-17T18:48:05.875Z,0
2023-02-17T18:53:28.366Z,0
2023-02-17T18:58:51.383Z,0
2023-02-17T19:04:14.968Z,0
2023-02-17T19:09:48.859Z,0
2023-02-17T19:15:19.747Z,0
2023-02-17T19:20:42.232Z,0
2023-02-17T19:26:07.830Z,0
2023-02-17T19:31:31.591Z,0
2023-02-17T19:36:54.362Z,0
2023-02-17T19:42:18.131Z,0
2023-02-17T19:47:40.865Z,0
2023-02-17T19:53:03.875Z,0
2023-02-17T19:58:26.435Z,0
2023-02-17T20:03:49.050Z,0
2023-02-17T20:09:20.934Z,0
2023-02-17T20:20:29.882Z,0
2023-02-17T20:25:52.387Z,0
2023-02-17T20:31:15.708Z,0
2023-02-17T20:36:46.833Z,0
2023-02-17T20:42:19.886Z,0
2023-02-17T20:47:42.670Z,0
2023-02-17T20:53:14.114Z,0
2023-02-17T20:58:36.701Z,0
2023-02-17T21:03:59.275Z,0
2023-02-17T21:09:21.922Z,0
2023-02-17T21:14:45.156Z,0
2023-02-17T21:20:15.089Z,0
2023-02-17T21:25:38.108Z,0
2023-02-17T21:31:00.944Z,0
2023-02-17T21:36:24.905Z,0
2023-02-17T21:41:47.671Z,0
2023-02-17T21:47:12.348Z,0
2023-02-17T21:52:35.203Z,0
2023-02-17T21:57:57.853Z,0
2023-02-17T22:03:22.737Z,0
2023-02-17T22:08:45.211Z,0
2023-02-17T22:14:10.676Z,0
2023-02-17T22:19:33.003Z,0
2023-02-17T22:25:09.189Z,0
2023-02-17T22:30:32.118Z,0
2023-02-17T22:35:54.866Z,0
2023-02-17T22:41:25.532Z,0
2023-02-17T22:46:48.082Z,0
2023-02-17T22:52:25.293Z,0
2023-02-17T22:57:47.915Z,0
2023-02-17T23:03:15.844Z,0
2023-02-17T23:08:38.457Z,0
2023-02-17T23:14:00.818Z,0
2023-02-17T23:24:43.446Z,0
2023-02-17T23:30:05.818Z,0
2023-02-17T23:35:28.361Z,0
2023-02-17T23:46:20.119Z,0
2023-02-17T23:52:19.954Z,0
2023-02-17T23:57:43.099Z,0
